Boston, Texas
Current Conditions -  °F | °C
As of 11:53 PM on Sunday 19 Oct 2014 (Local Time) from KTXK Reporting Station
Clear Clear  
Wind Chill: 53°   Ceiling: Unl
Heat Index: 53°   Visibility: 10mi
Dew Point: 50°   Wind: 3mph
Humidity: 89%   Direction: 120°ESE
Pressure: 30.1"   Gusts: NA
Location:  33.4799°N, 94.4582°W
Report Text: KTXK 200453Z AUTO 12003KT 10SM CLR 12/10 A3010 RMK AO2 SLP189 T01170100
Loading
Personal Weather Stations






























Interactive Weather Map
Tropical Storm Tracking
New forecast layout! Learn more

10-Day Weather Forecast

Advertisements
Track Severe Weather on mobile